FIN26CE EYVI-EFHK
Flight info
| Callsign | FIN26CE |
|---|---|
| Flight time | 1h 4m |
| Altitude | 36000 |
| Route | TAGOL DCT LUNIT M983 DOLAT/N0448F350 DCT GONOS Q77 IBUZU Q92 INTOR |
| Aircraft | A20N/M-SDE2E3FGHIRWXY/LB1 |
Departure
| Time | 2026-04-26 12:34 |
|---|---|
| Airport | Vilnius International Airport (EYVI) |
Arrival
| Time | 2026-04-26 13:38 |
|---|---|
| Airport | Helsinki Vantaa Airport (EFHK) |
| Time | Latitude | Longitude | Altitude | Speed | Heading |
|---|---|---|---|---|---|
| 2026-04-26 12:14 | 54.64235 | 25.28203 | 639 ft | 0 kts | 1° |
| 2026-04-26 12:23 | 54.64219 | 25.28203 | 637 ft | 3 kts | 1° |
| 2026-04-26 12:23 | 54.64197 | 25.28202 | 639 ft | 3 kts | 355° |
| 2026-04-26 12:23 | 54.64176 | 25.28215 | 639 ft | 3 kts | 309° |
| 2026-04-26 12:24 | 54.64170 | 25.28251 | 638 ft | 3 kts | 244° |
| 2026-04-26 12:24 | 54.64181 | 25.28274 | 639 ft | 0 kts | 252° |
| 2026-04-26 12:26 | 54.64175 | 25.28242 | 638 ft | 7 kts | 251° |
| 2026-04-26 12:26 | 54.64136 | 25.28172 | 637 ft | 10 kts | 188° |
| 2026-04-26 12:27 | 54.64052 | 25.28189 | 643 ft | 15 kts | 167° |
| 2026-04-26 12:27 | 54.63933 | 25.28238 | 633 ft | 21 kts | 167° |
| 2026-04-26 12:27 | 54.63787 | 25.28294 | 629 ft | 18 kts | 167° |
| 2026-04-26 12:27 | 54.63665 | 25.28348 | 626 ft | 16 kts | 165° |
| 2026-04-26 12:28 | 54.63531 | 25.28339 | 615 ft | 23 kts | 200° |
| 2026-04-26 12:28 | 54.63380 | 25.28236 | 609 ft | 20 kts | 203° |
| 2026-04-26 12:28 | 54.63245 | 25.28144 | 609 ft | 23 kts | 205° |
| 2026-04-26 12:28 | 54.63117 | 25.28055 | 610 ft | 3 kts | 200° |
| 2026-04-26 12:29 | 54.63105 | 25.28048 | 610 ft | 6 kts | 200° |
| 2026-04-26 12:29 | 54.63028 | 25.27996 | 606 ft | 17 kts | 202° |
| 2026-04-26 12:29 | 54.62707 | 25.27776 | 601 ft | 29 kts | 192° |
| 2026-04-26 12:30 | 54.62580 | 25.27689 | 601 ft | 12 kts | 210° |
| 2026-04-26 12:30 | 54.62508 | 25.27673 | 618 ft | 11 kts | 150° |
| 2026-04-26 12:30 | 54.62498 | 25.27687 | 616 ft | 0 kts | 135° |
| 2026-04-26 12:31 | 54.62491 | 25.27696 | 608 ft | 0 kts | 141° |
| 2026-04-26 12:31 | 54.62486 | 25.27703 | 617 ft | 3 kts | 142° |
| 2026-04-26 12:31 | 54.62446 | 25.27757 | 608 ft | 12 kts | 140° |
| 2026-04-26 12:32 | 54.62449 | 25.27907 | 604 ft | 16 kts | 27° |
| 2026-04-26 12:32 | 54.62471 | 25.27924 | 604 ft | 0 kts | 22° |
| 2026-04-26 12:33 | 54.62492 | 25.27938 | 604 ft | 23 kts | 21° |
| 2026-04-26 12:33 | 54.62888 | 25.28204 | 602 ft | 94 kts | 23° |
| 2026-04-26 12:33 | 54.63659 | 25.28753 | 631 ft | 146 kts | 21° |
| 2026-04-26 12:33 | 54.64673 | 25.29524 | 965 ft | 166 kts | 16° |
| 2026-04-26 12:34 | 54.65801 | 25.30417 | 1382 ft | 190 kts | 17° |
| 2026-04-26 12:34 | 54.67093 | 25.31363 | 1908 ft | 210 kts | 14° |
| 2026-04-26 12:34 | 54.68430 | 25.32222 | 2932 ft | 206 kts | 13° |
| 2026-04-26 12:34 | 54.69819 | 25.33088 | 3635 ft | 216 kts | 13° |
| 2026-04-26 12:35 | 54.71224 | 25.34000 | 4720 ft | 215 kts | 14° |
| 2026-04-26 12:35 | 54.72622 | 25.34942 | 5792 ft | 217 kts | 14° |
| 2026-04-26 12:35 | 54.74036 | 25.35916 | 6779 ft | 220 kts | 15° |
| 2026-04-26 12:35 | 54.75469 | 25.36916 | 7742 ft | 223 kts | 15° |
| 2026-04-26 12:36 | 54.76879 | 25.37904 | 8665 ft | 227 kts | 15° |
| 2026-04-26 12:36 | 54.78343 | 25.38930 | 9605 ft | 231 kts | 15° |
| 2026-04-26 12:36 | 54.79871 | 25.39880 | 10490 ft | 230 kts | 6° |
| 2026-04-26 12:36 | 54.81452 | 25.40074 | 11350 ft | 227 kts | 351° |
| 2026-04-26 12:37 | 54.83014 | 25.39521 | 12090 ft | 236 kts | 344° |
| 2026-04-26 12:37 | 54.84687 | 25.38814 | 12431 ft | 259 kts | 345° |
| 2026-04-26 12:37 | 54.86498 | 25.38069 | 12729 ft | 282 kts | 345° |
| 2026-04-26 12:37 | 54.88480 | 25.37266 | 13031 ft | 303 kts | 345° |
| 2026-04-26 12:38 | 54.90564 | 25.36428 | 13750 ft | 309 kts | 346° |
| 2026-04-26 12:38 | 54.92672 | 25.35580 | 14452 ft | 313 kts | 346° |
| 2026-04-26 12:38 | 54.94803 | 25.34721 | 14750 ft | 316 kts | 346° |
| 2026-04-26 12:38 | 54.96953 | 25.33854 | 14834 ft | 316 kts | 346° |
| 2026-04-26 12:39 | 54.99099 | 25.32985 | 14837 ft | 316 kts | 346° |
| 2026-04-26 12:39 | 55.01241 | 25.32117 | 14840 ft | 316 kts | 346° |
| 2026-04-26 12:39 | 55.03386 | 25.31246 | 14839 ft | 316 kts | 346° |
| 2026-04-26 12:39 | 55.05524 | 25.30378 | 14838 ft | 316 kts | 346° |
| 2026-04-26 12:40 | 55.07670 | 25.29505 | 14838 ft | 317 kts | 346° |
| 2026-04-26 12:40 | 55.09818 | 25.28631 | 14841 ft | 316 kts | 346° |
| 2026-04-26 12:40 | 55.11930 | 25.27770 | 14845 ft | 317 kts | 346° |
| 2026-04-26 12:40 | 55.14107 | 25.26882 | 14846 ft | 317 kts | 346° |
| 2026-04-26 12:41 | 55.16230 | 25.26015 | 14838 ft | 317 kts | 346° |
| 2026-04-26 12:41 | 55.18369 | 25.25141 | 14840 ft | 317 kts | 346° |
| 2026-04-26 12:41 | 55.20518 | 25.24260 | 14842 ft | 317 kts | 346° |
| 2026-04-26 12:41 | 55.22662 | 25.23381 | 14841 ft | 317 kts | 346° |
| 2026-04-26 12:42 | 55.24813 | 25.22499 | 14841 ft | 317 kts | 346° |
| 2026-04-26 12:42 | 55.26965 | 25.21614 | 14837 ft | 317 kts | 346° |
| 2026-04-26 12:42 | 55.29127 | 25.20772 | 14840 ft | 317 kts | 349° |
| 2026-04-26 12:42 | 55.31323 | 25.20366 | 14841 ft | 318 kts | 355° |
| 2026-04-26 12:43 | 55.33540 | 25.20171 | 14851 ft | 319 kts | 356° |
| 2026-04-26 12:43 | 55.35768 | 25.20002 | 15113 ft | 323 kts | 356° |
| 2026-04-26 12:43 | 55.38018 | 25.19837 | 15945 ft | 324 kts | 356° |
| 2026-04-26 12:43 | 55.40287 | 25.19669 | 16720 ft | 327 kts | 356° |
| 2026-04-26 12:44 | 55.42578 | 25.19497 | 17429 ft | 332 kts | 356° |
| 2026-04-26 12:44 | 55.44872 | 25.19324 | 18142 ft | 336 kts | 357° |
| 2026-04-26 12:44 | 55.47223 | 25.19145 | 18776 ft | 339 kts | 356° |
| 2026-04-26 12:44 | 55.49587 | 25.18965 | 19430 ft | 342 kts | 356° |
| 2026-04-26 12:45 | 55.51975 | 25.18783 | 20079 ft | 345 kts | 356° |
| 2026-04-26 12:45 | 55.54376 | 25.18599 | 20735 ft | 347 kts | 356° |
| 2026-04-26 12:45 | 55.56796 | 25.18414 | 21405 ft | 349 kts | 356° |
| 2026-04-26 12:45 | 55.59233 | 25.18227 | 22070 ft | 351 kts | 356° |
| 2026-04-26 12:46 | 55.60850 | 25.18103 | 22489 ft | 353 kts | 356° |
| 2026-04-26 12:46 | 55.63312 | 25.17915 | 23132 ft | 355 kts | 356° |
| 2026-04-26 12:46 | 55.65789 | 25.17725 | 23689 ft | 358 kts | 355° |
| 2026-04-26 12:46 | 55.68285 | 25.17532 | 24164 ft | 361 kts | 355° |
| 2026-04-26 12:47 | 55.70810 | 25.17337 | 24632 ft | 364 kts | 355° |
| 2026-04-26 12:47 | 55.73352 | 25.17140 | 25097 ft | 367 kts | 355° |
| 2026-04-26 12:47 | 55.75907 | 25.16942 | 25553 ft | 370 kts | 355° |
| 2026-04-26 12:47 | 55.78490 | 25.16741 | 25999 ft | 372 kts | 355° |
| 2026-04-26 12:48 | 55.81093 | 25.16539 | 26439 ft | 375 kts | 355° |
| 2026-04-26 12:48 | 55.83538 | 25.16348 | 26842 ft | 378 kts | 355° |
| 2026-04-26 12:48 | 55.86172 | 25.16143 | 27265 ft | 381 kts | 355° |
| 2026-04-26 12:48 | 55.88829 | 25.15935 | 27680 ft | 383 kts | 355° |
| 2026-04-26 12:49 | 55.91503 | 25.15726 | 28080 ft | 386 kts | 355° |
| 2026-04-26 12:49 | 55.94190 | 25.15515 | 28465 ft | 388 kts | 355° |
| 2026-04-26 12:49 | 55.96902 | 25.15302 | 28848 ft | 391 kts | 355° |
| 2026-04-26 12:49 | 55.99620 | 25.15089 | 29206 ft | 393 kts | 355° |
| 2026-04-26 12:50 | 56.02370 | 25.14872 | 29573 ft | 396 kts | 355° |
| 2026-04-26 12:50 | 56.05097 | 25.14657 | 29921 ft | 398 kts | 355° |
| 2026-04-26 12:50 | 56.07870 | 25.14438 | 30192 ft | 401 kts | 355° |
| 2026-04-26 12:50 | 56.10676 | 25.14216 | 30449 ft | 404 kts | 355° |
| 2026-04-26 12:51 | 56.13495 | 25.13993 | 30709 ft | 408 kts | 355° |
| 2026-04-26 12:51 | 56.16342 | 25.13767 | 30985 ft | 410 kts | 355° |
| 2026-04-26 12:51 | 56.19196 | 25.13541 | 31302 ft | 412 kts | 355° |
| 2026-04-26 12:51 | 56.22066 | 25.13313 | 31627 ft | 413 kts | 355° |
| 2026-04-26 12:52 | 56.24935 | 25.13085 | 31951 ft | 414 kts | 355° |
| 2026-04-26 12:52 | 56.27822 | 25.12855 | 32264 ft | 415 kts | 355° |
| 2026-04-26 12:52 | 56.30711 | 25.12624 | 32584 ft | 416 kts | 355° |
| 2026-04-26 12:52 | 56.33614 | 25.12392 | 32893 ft | 417 kts | 355° |
| 2026-04-26 12:53 | 56.36522 | 25.12159 | 33197 ft | 418 kts | 355° |
| 2026-04-26 12:53 | 56.39439 | 25.11925 | 33496 ft | 419 kts | 355° |
| 2026-04-26 12:53 | 56.42351 | 25.11691 | 33797 ft | 420 kts | 355° |
| 2026-04-26 12:53 | 56.45278 | 25.11455 | 34051 ft | 420 kts | 355° |
| 2026-04-26 12:54 | 56.48194 | 25.11221 | 34308 ft | 420 kts | 355° |
| 2026-04-26 12:54 | 56.51125 | 25.10984 | 34548 ft | 421 kts | 355° |
| 2026-04-26 12:54 | 56.54052 | 25.10747 | 34778 ft | 421 kts | 355° |
| 2026-04-26 12:54 | 56.56986 | 25.10510 | 35004 ft | 422 kts | 355° |
| 2026-04-26 12:55 | 56.59889 | 25.10274 | 35215 ft | 422 kts | 355° |
| 2026-04-26 12:55 | 56.62808 | 25.10037 | 35432 ft | 423 kts | 355° |
| 2026-04-26 12:55 | 56.65773 | 25.09796 | 35653 ft | 423 kts | 355° |
| 2026-04-26 12:55 | 56.68724 | 25.09555 | 35820 ft | 424 kts | 355° |
| 2026-04-26 12:56 | 56.71667 | 25.09315 | 35852 ft | 424 kts | 355° |
| 2026-04-26 12:56 | 56.77551 | 25.08834 | 35854 ft | 423 kts | 355° |
| 2026-04-26 12:57 | 56.83434 | 25.08351 | 35853 ft | 423 kts | 355° |
| 2026-04-26 12:57 | 56.89278 | 25.07870 | 35850 ft | 423 kts | 355° |
| 2026-04-26 12:58 | 56.98100 | 25.07140 | 35847 ft | 423 kts | 355° |
| 2026-04-26 12:58 | 57.03996 | 25.06826 | 35842 ft | 425 kts | 1° |
| 2026-04-26 12:59 | 57.09898 | 25.07494 | 35832 ft | 425 kts | 1° |
| 2026-04-26 12:59 | 57.15807 | 25.08184 | 35831 ft | 426 kts | 1° |
| 2026-04-26 13:00 | 57.21721 | 25.08856 | 35828 ft | 426 kts | 1° |
| 2026-04-26 13:00 | 57.27633 | 25.09525 | 35829 ft | 426 kts | 1° |
| 2026-04-26 13:01 | 57.33554 | 25.10198 | 35834 ft | 426 kts | 1° |
| 2026-04-26 13:01 | 57.39468 | 25.10872 | 35818 ft | 425 kts | 1° |
| 2026-04-26 13:02 | 57.45336 | 25.11541 | 35817 ft | 425 kts | 1° |
| 2026-04-26 13:02 | 57.51248 | 25.12219 | 35811 ft | 426 kts | 1° |
| 2026-04-26 13:03 | 57.57164 | 25.12899 | 35810 ft | 426 kts | 1° |
| 2026-04-26 13:03 | 57.63082 | 25.13582 | 35808 ft | 426 kts | 1° |
| 2026-04-26 13:04 | 57.69009 | 25.14268 | 35805 ft | 426 kts | 1° |
| 2026-04-26 13:04 | 57.74935 | 25.14956 | 35805 ft | 427 kts | 1° |
| 2026-04-26 13:05 | 57.80875 | 25.15649 | 35805 ft | 427 kts | 1° |
| 2026-04-26 13:05 | 57.86807 | 25.16342 | 35805 ft | 427 kts | 1° |
| 2026-04-26 13:06 | 57.92748 | 25.17039 | 35808 ft | 427 kts | 1° |
| 2026-04-26 13:06 | 57.98683 | 25.17737 | 35805 ft | 428 kts | 1° |
| 2026-04-26 13:07 | 58.04593 | 25.18435 | 35800 ft | 428 kts | 1° |
| 2026-04-26 13:07 | 58.10539 | 25.19139 | 35799 ft | 428 kts | 1° |
| 2026-04-26 13:08 | 58.16482 | 25.19845 | 35796 ft | 428 kts | 1° |
| 2026-04-26 13:08 | 58.22436 | 25.20555 | 35792 ft | 428 kts | 1° |
| 2026-04-26 13:09 | 58.28377 | 25.21266 | 35789 ft | 428 kts | 1° |
| 2026-04-26 13:09 | 58.34331 | 25.21981 | 35788 ft | 428 kts | 1° |
| 2026-04-26 13:10 | 58.40289 | 25.22699 | 35783 ft | 429 kts | 1° |
| 2026-04-26 13:10 | 58.46241 | 25.23418 | 35779 ft | 429 kts | 1° |
| 2026-04-26 13:11 | 58.52193 | 25.24140 | 35780 ft | 429 kts | 1° |
| 2026-04-26 13:11 | 58.58158 | 25.24866 | 35779 ft | 429 kts | 1° |
| 2026-04-26 13:12 | 58.64082 | 25.25589 | 35776 ft | 429 kts | 1° |
| 2026-04-26 13:12 | 58.70044 | 25.26320 | 35771 ft | 429 kts | 1° |
| 2026-04-26 13:13 | 58.76006 | 25.27053 | 35769 ft | 429 kts | 2° |
| 2026-04-26 13:13 | 58.81973 | 25.27789 | 35773 ft | 429 kts | 2° |
| 2026-04-26 13:14 | 58.87935 | 25.28527 | 35735 ft | 430 kts | 2° |
| 2026-04-26 13:14 | 58.90924 | 25.28898 | 35445 ft | 430 kts | 2° |
| 2026-04-26 13:14 | 58.93912 | 25.29270 | 35009 ft | 429 kts | 2° |
| 2026-04-26 13:15 | 58.96878 | 25.29639 | 34551 ft | 427 kts | 2° |
| 2026-04-26 13:15 | 58.99835 | 25.30009 | 34101 ft | 424 kts | 2° |
| 2026-04-26 13:15 | 59.02774 | 25.30377 | 33646 ft | 422 kts | 2° |
| 2026-04-26 13:15 | 59.04712 | 25.30619 | 33285 ft | 421 kts | 2° |
| 2026-04-26 13:16 | 59.08627 | 25.31110 | 32597 ft | 421 kts | 2° |
| 2026-04-26 13:16 | 59.11506 | 25.31471 | 32089 ft | 421 kts | 1° |
| 2026-04-26 13:16 | 59.14446 | 25.31841 | 31585 ft | 420 kts | 1° |
| 2026-04-26 13:16 | 59.17359 | 25.32209 | 31096 ft | 420 kts | 1° |
| 2026-04-26 13:17 | 59.23186 | 25.32945 | 29987 ft | 419 kts | 1° |
| 2026-04-26 13:17 | 59.26088 | 25.33312 | 28935 ft | 417 kts | 1° |
| 2026-04-26 13:18 | 59.31827 | 25.34041 | 26751 ft | 410 kts | 2° |
| 2026-04-26 13:18 | 59.34664 | 25.34403 | 25715 ft | 406 kts | 2° |
| 2026-04-26 13:18 | 59.40265 | 25.35119 | 23746 ft | 400 kts | 1° |
| 2026-04-26 13:19 | 59.43032 | 25.35423 | 22678 ft | 397 kts | 358° |
| 2026-04-26 13:19 | 59.45777 | 25.35091 | 21553 ft | 393 kts | 350° |
| 2026-04-26 13:19 | 59.48444 | 25.34040 | 20463 ft | 389 kts | 345° |
| 2026-04-26 13:19 | 59.51063 | 25.32861 | 19421 ft | 386 kts | 346° |
| 2026-04-26 13:20 | 59.53651 | 25.31724 | 18411 ft | 382 kts | 346° |
| 2026-04-26 13:20 | 59.56268 | 25.30572 | 17315 ft | 379 kts | 346° |
| 2026-04-26 13:20 | 59.58794 | 25.29450 | 16225 ft | 375 kts | 346° |
| 2026-04-26 13:20 | 59.61318 | 25.28324 | 15160 ft | 370 kts | 346° |
| 2026-04-26 13:21 | 59.63813 | 25.27206 | 14124 ft | 364 kts | 346° |
| 2026-04-26 13:21 | 59.65472 | 25.26460 | 13426 ft | 361 kts | 346° |
| 2026-04-26 13:21 | 59.68671 | 25.25021 | 12241 ft | 348 kts | 346° |
| 2026-04-26 13:21 | 59.70957 | 25.23996 | 11905 ft | 326 kts | 347° |
| 2026-04-26 13:22 | 59.73082 | 25.23042 | 11780 ft | 301 kts | 346° |
| 2026-04-26 13:22 | 59.75066 | 25.22150 | 11781 ft | 292 kts | 346° |
| 2026-04-26 13:22 | 59.77090 | 25.21236 | 11771 ft | 298 kts | 346° |
| 2026-04-26 13:22 | 59.79066 | 25.20342 | 11769 ft | 283 kts | 346° |
| 2026-04-26 13:23 | 59.80941 | 25.19505 | 11765 ft | 267 kts | 348° |
| 2026-04-26 13:23 | 59.82614 | 25.19289 | 11763 ft | 256 kts | 2° |
| 2026-04-26 13:23 | 59.84369 | 25.20009 | 11773 ft | 262 kts | 17° |
| 2026-04-26 13:23 | 59.86015 | 25.21412 | 11767 ft | 250 kts | 20° |
| 2026-04-26 13:24 | 59.87557 | 25.22749 | 11767 ft | 234 kts | 19° |
| 2026-04-26 13:24 | 59.89012 | 25.23996 | 11771 ft | 224 kts | 19° |
| 2026-04-26 13:24 | 59.90475 | 25.25229 | 11768 ft | 235 kts | 19° |
| 2026-04-26 13:24 | 59.91991 | 25.26521 | 11767 ft | 235 kts | 20° |
| 2026-04-26 13:25 | 59.93419 | 25.27774 | 11760 ft | 220 kts | 19° |
| 2026-04-26 13:25 | 59.94792 | 25.28986 | 11758 ft | 205 kts | 19° |
| 2026-04-26 13:25 | 59.96095 | 25.30128 | 11755 ft | 207 kts | 19° |
| 2026-04-26 13:25 | 59.97466 | 25.31316 | 11588 ft | 222 kts | 19° |
| 2026-04-26 13:26 | 59.98910 | 25.32569 | 11158 ft | 228 kts | 19° |
| 2026-04-26 13:26 | 60.00368 | 25.33848 | 10574 ft | 229 kts | 19° |
| 2026-04-26 13:26 | 60.01827 | 25.35131 | 9885 ft | 234 kts | 19° |
| 2026-04-26 13:26 | 60.03331 | 25.36454 | 9257 ft | 232 kts | 19° |
| 2026-04-26 13:27 | 60.04803 | 25.37751 | 8638 ft | 230 kts | 19° |
| 2026-04-26 13:27 | 60.06260 | 25.39037 | 8058 ft | 227 kts | 19° |
| 2026-04-26 13:27 | 60.07683 | 25.40291 | 7479 ft | 225 kts | 19° |
| 2026-04-26 13:27 | 60.09109 | 25.41549 | 6922 ft | 223 kts | 19° |
| 2026-04-26 13:28 | 60.10624 | 25.42863 | 6276 ft | 258 kts | 19° |
| 2026-04-26 13:28 | 60.12327 | 25.44332 | 5248 ft | 272 kts | 19° |
| 2026-04-26 13:28 | 60.14091 | 25.45871 | 4184 ft | 280 kts | 19° |
| 2026-04-26 13:28 | 60.15895 | 25.47448 | 3177 ft | 284 kts | 19° |
| 2026-04-26 13:29 | 60.17718 | 25.48748 | 2638 ft | 269 kts | 6° |
| 2026-04-26 13:29 | 60.18915 | 25.48739 | 2461 ft | 254 kts | 349° |
| 2026-04-26 13:29 | 60.20809 | 25.46510 | 2311 ft | 230 kts | 311° |
| 2026-04-26 13:29 | 60.21363 | 25.43627 | 2304 ft | 220 kts | 280° |
| 2026-04-26 13:30 | 60.21242 | 25.41630 | 2311 ft | 215 kts | 262° |
| 2026-04-26 13:30 | 60.20799 | 25.38913 | 2342 ft | 192 kts | 260° |
| 2026-04-26 13:30 | 60.20344 | 25.36492 | 2327 ft | 186 kts | 258° |
| 2026-04-26 13:30 | 60.19863 | 25.34073 | 2319 ft | 185 kts | 258° |
| 2026-04-26 13:31 | 60.19381 | 25.31676 | 2317 ft | 186 kts | 258° |
| 2026-04-26 13:31 | 60.18901 | 25.29267 | 2322 ft | 185 kts | 258° |
| 2026-04-26 13:31 | 60.18421 | 25.26837 | 2322 ft | 187 kts | 258° |
| 2026-04-26 13:31 | 60.17964 | 25.24570 | 2331 ft | 166 kts | 259° |
| 2026-04-26 13:32 | 60.17532 | 25.22414 | 2322 ft | 164 kts | 260° |
| 2026-04-26 13:32 | 60.17123 | 25.20301 | 2326 ft | 164 kts | 260° |
| 2026-04-26 13:32 | 60.16706 | 25.18161 | 2322 ft | 164 kts | 259° |
| 2026-04-26 13:32 | 60.16486 | 25.16006 | 2321 ft | 152 kts | 283° |
| 2026-04-26 13:33 | 60.16737 | 25.14053 | 2327 ft | 139 kts | 306° |
| 2026-04-26 13:33 | 60.17324 | 25.12582 | 2327 ft | 133 kts | 325° |
| 2026-04-26 13:33 | 60.18108 | 25.11671 | 2322 ft | 129 kts | 337° |
| 2026-04-26 13:33 | 60.18903 | 25.10898 | 2109 ft | 126 kts | 336° |
| 2026-04-26 13:34 | 60.19697 | 25.10096 | 2003 ft | 130 kts | 336° |
| 2026-04-26 13:34 | 60.20498 | 25.09275 | 1972 ft | 127 kts | 335° |
| 2026-04-26 13:34 | 60.21284 | 25.08465 | 1806 ft | 128 kts | 335° |
| 2026-04-26 13:34 | 60.21802 | 25.07934 | 1720 ft | 128 kts | 335° |
| 2026-04-26 13:35 | 60.22857 | 25.06859 | 1706 ft | 129 kts | 336° |
| 2026-04-26 13:35 | 60.23665 | 25.06038 | 1695 ft | 129 kts | 336° |
| 2026-04-26 13:35 | 60.24469 | 25.05223 | 1658 ft | 129 kts | 335° |
| 2026-04-26 13:35 | 60.25235 | 25.04434 | 1596 ft | 117 kts | 336° |
| 2026-04-26 13:36 | 60.25909 | 25.03736 | 1419 ft | 104 kts | 336° |
| 2026-04-26 13:36 | 60.26554 | 25.03077 | 1113 ft | 104 kts | 336° |
| 2026-04-26 13:36 | 60.27176 | 25.02431 | 921 ft | 96 kts | 335° |
| 2026-04-26 13:36 | 60.27755 | 25.01850 | 761 ft | 92 kts | 334° |
| 2026-04-26 13:37 | 60.28341 | 25.01270 | 697 ft | 98 kts | 332° |
| 2026-04-26 13:37 | 60.28967 | 25.00603 | 642 ft | 105 kts | 332° |
| 2026-04-26 13:37 | 60.29617 | 24.99942 | 492 ft | 105 kts | 332° |
| 2026-04-26 13:37 | 60.30270 | 24.99277 | 321 ft | 105 kts | 332° |
| 2026-04-26 13:38 | 60.30905 | 24.98628 | 181 ft | 98 kts | 333° |
| 2026-04-26 13:38 | 60.31350 | 24.98175 | 159 ft | 33 kts | 333° |
| 2026-04-26 13:38 | 60.31422 | 24.97898 | 159 ft | 20 kts | 248° |
| 2026-04-26 13:38 | 60.31410 | 24.97855 | 159 ft | 0 kts | 240° |
| 2026-04-26 13:39 | 60.31391 | 24.97788 | 159 ft | 14 kts | 240° |
| 2026-04-26 13:40 | 60.31405 | 24.97637 | 160 ft | 15 kts | 326° |
| 2026-04-26 13:40 | 60.31459 | 24.97580 | 160 ft | 9 kts | 332° |
| 2026-04-26 13:40 | 60.31517 | 24.97510 | 160 ft | 10 kts | 329° |
| 2026-04-26 13:40 | 60.31583 | 24.97444 | 160 ft | 10 kts | 334° |
| 2026-04-26 13:41 | 60.31614 | 24.97372 | 161 ft | 2 kts | 271° |
| 2026-04-26 13:41 | 60.31603 | 24.97324 | 161 ft | 3 kts | 242° |
| 2026-04-26 13:41 | 60.31596 | 24.97301 | 161 ft | 0 kts | 242° |
| 2026-04-26 13:49 | 60.31596 | 24.97299 | 161 ft | 0 kts | 243° |
| 2026-04-26 13:49 | 60.31595 | 24.97296 | 161 ft | 0 kts | 243° |
| 2026-04-26 13:49 | 60.31595 | 24.97295 | 161 ft | 0 kts | 243° |